O06 weather

Lake Oroville Landing Area Seaplane Base
Oroville, California, United States

Public forecast

Using degrees Fahrenheit for public forecast. Weather courtesy of forecast.io.

Closest aviation weather report (METAR) to Lake Oroville Landing Area Seaplane Base

Closest report is Oroville Municipal Airport, 8.6 nm (15.9 km) WSW. Retrieved 2019/10/18 15:53 UTC (33 minutes ago):

KOVE 181553Z AUTO 00000KT 10SM OVC070 11/05 A3006 RMK AO2 SLP180 T01060050

Closest aviation forecast (TAF) to Lake Oroville Landing Area Seaplane Base

Closest forecast is Beale Air Force Base, 25.9 nm (47.9 km) S. Retrieved 2019/10/18 11:03 UTC (5 hours ago):

TAF TAF KBAB 181100Z 1811/1917 VRB06KT 9999 SKC QNH2994INS BECMG 1814/1815 28009KT 9999 SCT160 QNH3002INS BECMG 1901/1902 VRB06KT 9999 FEW100 QNH3003INS BECMG 1914/1915 16009KT 9999 SCT150 QNH3004INS TX22/1821Z TN05/1812Z